Flight Track Log - Related Links

Times and Time Zones

All times are in EST time to prevent confusion due to time zone crossing. See the PDT4155 flight status page for this flight to view local times or setup timezone preferences in your user account.

Time Position Orientation Groundspeed Altitude Reporting Facility
EST Latitude Longitude Course Direction KTS MPH feet Rate Location/Type
Tue 07:57:00 AM 41.8770 -75.8714 159° South  Level Estimated
Tue 07:58:00 AM 41.8217 -75.8535 153° Southeast  Level Estimated
Tue 07:59:00 AM 41.7664 -75.8356 161° South  Level Estimated
Tue 08:00:00 AM 41.7110 -75.8186 167° South  Level FlightAware Approximate
Tue 08:01:00 AM 41.6556 -75.8017 167° South  Level FlightAware Approximate
Tue 08:02:00 AM 41.6002 -75.7847 167° South  Level FlightAware Approximate
Tue 08:03:00 AM 41.5450 -75.7669 162° South  Level Estimated
Tue 08:04:00 AM 41.4902 -75.7466 164° South  Level FlightAware Approximate
Tue 08:05:00 AM 41.4354 -75.7263 165° South  Level FlightAware Approximate
Tue 08:06:00 AM 41.3806 -75.7061 165° South  Level FlightAware Approximate
Tue 08:07:00 AM 41.3258 -75.6859 165° South  Level FlightAware Approximate
Tue 08:08:00 AM 41.2705 -75.6686 163° South  Level Estimated
Tue 08:09:00 AM 41.2160 -75.6469 163° South  Level FlightAware Approximate
Tue 08:10:00 AM 41.1616 -75.6253 163° South  Level FlightAware Approximate
Tue 08:11:00 AM 41.1071 -75.6037 163° South  Level FlightAware Approximate
Tue 08:12:00 AM 41.0526 -75.5822 163° South  Level FlightAware Approximate
Tue 08:13:00 AM 41.0028 -75.5675 190° South  Level Estimated
Tue 08:14:00 AM 40.9520 -75.5606 174° South  Level FlightAware Approximate
Tue 08:15:00 AM 40.9012 -75.5538 174° South  Level FlightAware Approximate
Tue 08:16:00 AM 40.8504 -75.5470 174° South  Level FlightAware Approximate
Tue 08:17:00 AM 40.8008 -75.5312 187° South  Level Estimated
Tue 08:18:00 AM 40.7498 -75.5293 178° South  Level FlightAware Approximate
Tue 08:19:00 AM 40.7003 -75.5129 190° South  Level Estimated
Tue 08:20:00 AM 40.6494 -75.5171 184° South  Level FlightAware Approximate
Tue 08:21:00 AM 40.5984 -75.5213 184° South  Level FlightAware Approximate
Tue 08:22:00 AM 40.5495 -75.5022 180° South  Level Estimated
Tue 08:22:39 AM 40.6000 -75.4833 143° Southeast 185 213 6,000  Level Philadelphia TRACON
Tue 08:23:00 AM 40.5005 -75.4831 143° Southeast  Level Estimated
Tue 08:23:51 AM 40.5500 -75.5000 194° South 185 213 5,100  Level Philadelphia TRACON
Tue 08:24:00 AM 40.4516 -75.4641 143° Southeast  Level Estimated
Tue 08:24:51 AM 40.4833 -75.4833 169° South 194 223 5,000  Level Philadelphia TRACON
Tue 08:25:00 AM 40.4006 -75.4620 178° South  Level FlightAware Approximate
Tue 08:25:51 AM 40.4333 -75.4667 166° South 192 221 5,000  Level Philadelphia TRACON
Tue 08:26:00 AM 40.3520 -75.4415 143° Southeast  Level Estimated
Tue 08:26:51 AM 40.3833 -75.4333 153° Southeast 193 222 5,000  Level Philadelphia TRACON
Tue 08:27:00 AM 40.3034 -75.4211 143° Southeast  Level Estimated
Tue 08:27:51 AM 40.3333 -75.4167 166° South 194 223 4,900  Level Philadelphia TRACON
Tue 08:28:51 AM 40.2833 -75.4167 180° South 190 219 4,000 -450 Descending Philadelphia TRACON
Tue 08:29:51 AM 40.2333 -75.4000 166° South 187 215 4,000 -50 Level Philadelphia TRACON
Tue 08:30:51 AM 40.1833 -75.3833 166° South 180 207 3,900 -350 Descending Philadelphia TRACON
Tue 08:31:51 AM 40.1500 -75.3667 159° South 162 186 3,300 -450 Descending Philadelphia TRACON
Tue 08:32:51 AM 40.1000 -75.3500 166° South 165 190 3,000 -150 Descending Philadelphia TRACON
Tue 08:33:51 AM 40.0667 -75.3167 143° Southeast 157 181 3,000 -50 Level Philadelphia TRACON
Tue 08:34:51 AM 40.0167 -75.3000 166° South 156 180 2,900 -450 Descending Philadelphia TRACON
Tue 08:35:51 AM 39.9833 -75.2833 159° South 153 176 2,100 -750 Descending Philadelphia TRACON
Tue 08:36:51 AM 39.9500 -75.2667 159° South 112 129 1,400 -650 Descending Philadelphia TRACON
Tue 08:37:51 AM 39.9167 -75.2500 159° South 108 124 800 -632 Descending Philadelphia TRACON
Tue 08:38:45 AM 39.9000 -75.2333 143° Southeast 107 123 200 -667 Descending Philadelphia TRACON

Login

Don't have an account? Register now (free) for customized features, flight alerts, and more!